sensor_id;sensor_type;location;lat;lon;timestamp;temperature;humidity
19252;DHT22;9760;50.944;5.304;2023-04-01T00:00:52;9.40;99.90
19252;DHT22;9760;50.944;5.304;2023-04-01T00:03:18;9.40;99.90
19252;DHT22;9760;50.944;5.304;2023-04-01T00:05:45;9.40;99.90
19252;DHT22;9760;50.944;5.304;2023-04-01T00:08:11;9.40;99.90
19252;DHT22;9760;50.944;5.304;2023-04-01T00:10:37;9.30;99.90
19252;DHT22;9760;50.944;5.304;2023-04-01T00:13:03;9.40;99.90
19252;DHT22;9760;50.944;5.304;2023-04-01T00:15:28;9.40;99.90
19252;DHT22;9760;50.944;5.304;2023-04-01T00:17:54;9.30;99.90
19252;DHT22;9760;50.944;5.304;2023-04-01T00:20:20;9.30;99.90
19252;DHT22;9760;50.944;5.304;2023-04-01T00:22:46;9.40;99.90
19252;DHT22;9760;50.944;5.304;2023-04-01T00:25:12;9.30;99.90
19252;DHT22;9760;50.944;5.304;2023-04-01T00:27:39;9.40;99.90
19252;DHT22;9760;50.944;5.304;2023-04-01T00:30:05;9.40;99.90
19252;DHT22;9760;50.944;5.304;2023-04-01T00:32:31;9.40;99.90
19252;DHT22;9760;50.944;5.304;2023-04-01T00:34:56;9.40;99.90
19252;DHT22;9760;50.944;5.304;2023-04-01T00:37:25;9.40;99.90
19252;DHT22;9760;50.944;5.304;2023-04-01T00:39:51;9.40;99.90
19252;DHT22;9760;50.944;5.304;2023-04-01T00:42:16;9.30;99.90
19252;DHT22;9760;50.944;5.304;2023-04-01T00:44:42;9.40;99.90
19252;DHT22;9760;50.944;5.304;2023-04-01T00:47:08;9.40;99.90
19252;DHT22;9760;50.944;5.304;2023-04-01T00:49:39;9.40;99.90
19252;DHT22;9760;50.944;5.304;2023-04-01T00:52:08;9.40;99.90
19252;DHT22;9760;50.944;5.304;2023-04-01T00:54:38;9.30;99.90
19252;DHT22;9760;50.944;5.304;2023-04-01T00:57:09;9.30;99.90
19252;DHT22;9760;50.944;5.304;2023-04-01T00:59:42;9.30;99.90
19252;DHT22;9760;50.944;5.304;2023-04-01T01:02:11;9.40;99.90
19252;DHT22;9760;50.944;5.304;2023-04-01T01:04:37;9.30;99.90
19252;DHT22;9760;50.944;5.304;2023-04-01T01:10:14;9.30;99.90
19252;DHT22;9760;50.944;5.304;2023-04-01T01:18:19;9.40;99.90
19252;DHT22;9760;50.944;5.304;2023-04-01T01:21:28;9.40;99.90
19252;DHT22;9760;50.944;5.304;2023-04-01T01:26:34;9.40;99.90
19252;DHT22;9760;50.944;5.304;2023-04-01T01:29:16;9.40;99.90
19252;DHT22;9760;50.944;5.304;2023-04-01T01:37:38;9.40;99.90
19252;DHT22;9760;50.944;5.304;2023-04-01T01:40:07;9.40;99.90
19252;DHT22;9760;50.944;5.304;2023-04-01T01:42:36;9.40;99.90
19252;DHT22;9760;50.944;5.304;2023-04-01T01:45:04;9.40;99.90
19252;DHT22;9760;50.944;5.304;2023-04-01T01:47:32;9.30;99.90
19252;DHT22;9760;50.944;5.304;2023-04-01T01:49:59;9.30;99.90
19252;DHT22;9760;50.944;5.304;2023-04-01T01:52:27;9.30;99.90
19252;DHT22;9760;50.944;5.304;2023-04-01T01:54:57;9.30;99.90
19252;DHT22;9760;50.944;5.304;2023-04-01T01:57:26;9.30;99.90
19252;DHT22;9760;50.944;5.304;2023-04-01T01:59:56;9.30;99.90
19252;DHT22;9760;50.944;5.304;2023-04-01T02:02:25;9.40;99.90
19252;DHT22;9760;50.944;5.304;2023-04-01T02:04:52;9.30;99.90
19252;DHT22;9760;50.944;5.304;2023-04-01T02:07:28;9.40;99.90
19252;DHT22;9760;50.944;5.304;2023-04-01T02:09:55;9.40;99.90
19252;DHT22;9760;50.944;5.304;2023-04-01T02:12:22;9.30;99.90
19252;DHT22;9760;50.944;5.304;2023-04-01T02:14:59;9.30;99.90
19252;DHT22;9760;50.944;5.304;2023-04-01T02:17:29;9.30;99.90
19252;DHT22;9760;50.944;5.304;2023-04-01T02:20:16;9.30;99.90
19252;DHT22;9760;50.944;5.304;2023-04-01T02:22:56;9.40;99.90
19252;DHT22;9760;50.944;5.304;2023-04-01T02:25:29;9.30;99.90
19252;DHT22;9760;50.944;5.304;2023-04-01T02:27:57;9.40;99.90
19252;DHT22;9760;50.944;5.304;2023-04-01T02:30:25;9.30;99.90
19252;DHT22;9760;50.944;5.304;2023-04-01T02:32:52;9.30;99.90
19252;DHT22;9760;50.944;5.304;2023-04-01T02:35:18;9.40;99.90
19252;DHT22;9760;50.944;5.304;2023-04-01T02:37:46;9.40;99.90
19252;DHT22;9760;50.944;5.304;2023-04-01T02:40:15;9.40;99.90
19252;DHT22;9760;50.944;5.304;2023-04-01T02:42:41;9.40;99.90
19252;DHT22;9760;50.944;5.304;2023-04-01T02:45:08;9.40;99.90
19252;DHT22;9760;50.944;5.304;2023-04-01T02:47:33;9.40;99.90
19252;DHT22;9760;50.944;5.304;2023-04-01T02:49:59;9.40;99.90
19252;DHT22;9760;50.944;5.304;2023-04-01T02:52:26;9.40;99.90
19252;DHT22;9760;50.944;5.304;2023-04-01T02:54:51;9.40;99.90
19252;DHT22;9760;50.944;5.304;2023-04-01T02:57:17;9.40;99.90
19252;DHT22;9760;50.944;5.304;2023-04-01T02:59:43;9.50;99.90
19252;DHT22;9760;50.944;5.304;2023-04-01T03:02:08;9.40;99.90
19252;DHT22;9760;50.944;5.304;2023-04-01T03:04:34;9.50;99.90
19252;DHT22;9760;50.944;5.304;2023-04-01T03:07:00;9.40;99.90
19252;DHT22;9760;50.944;5.304;2023-04-01T03:09:26;9.40;99.90
19252;DHT22;9760;50.944;5.304;2023-04-01T03:11:51;9.40;99.90
19252;DHT22;9760;50.944;5.304;2023-04-01T03:14:17;9.40;99.90
19252;DHT22;9760;50.944;5.304;2023-04-01T03:16:43;9.40;99.90
19252;DHT22;9760;50.944;5.304;2023-04-01T03:19:08;9.40;99.90
19252;DHT22;9760;50.944;5.304;2023-04-01T03:21:34;9.40;99.90
19252;DHT22;9760;50.944;5.304;2023-04-01T03:24:00;9.30;99.90
19252;DHT22;9760;50.944;5.304;2023-04-01T03:26:25;9.30;99.90
19252;DHT22;9760;50.944;5.304;2023-04-01T03:28:52;9.30;99.90
19252;DHT22;9760;50.944;5.304;2023-04-01T03:31:18;9.30;99.90
19252;DHT22;9760;50.944;5.304;2023-04-01T03:33:45;9.20;99.90
19252;DHT22;9760;50.944;5.304;2023-04-01T03:36:10;9.20;99.90
19252;DHT22;9760;50.944;5.304;2023-04-01T03:38:39;9.20;99.90
19252;DHT22;9760;50.944;5.304;2023-04-01T03:41:05;9.20;99.90
19252;DHT22;9760;50.944;5.304;2023-04-01T03:43:32;9.20;99.90
19252;DHT22;9760;50.944;5.304;2023-04-01T03:45:58;9.20;99.90
19252;DHT22;9760;50.944;5.304;2023-04-01T03:48:24;9.30;99.90
19252;DHT22;9760;50.944;5.304;2023-04-01T03:50:51;9.30;99.90
19252;DHT22;9760;50.944;5.304;2023-04-01T03:53:16;9.30;99.90
19252;DHT22;9760;50.944;5.304;2023-04-01T03:55:42;9.30;99.90
19252;DHT22;9760;50.944;5.304;2023-04-01T03:58:08;9.30;99.90
19252;DHT22;9760;50.944;5.304;2023-04-01T04:00:34;9.20;99.90
19252;DHT22;9760;50.944;5.304;2023-04-01T04:03:00;9.30;99.90
19252;DHT22;9760;50.944;5.304;2023-04-01T04:05:26;9.20;99.90
19252;DHT22;9760;50.944;5.304;2023-04-01T04:07:52;9.20;99.90
19252;DHT22;9760;50.944;5.304;2023-04-01T04:10:18;9.20;99.90
19252;DHT22;9760;50.944;5.304;2023-04-01T04:12:45;9.20;99.90
19252;DHT22;9760;50.944;5.304;2023-04-01T04:15:11;9.10;99.90
19252;DHT22;9760;50.944;5.304;2023-04-01T04:17:36;9.10;99.90
19252;DHT22;9760;50.944;5.304;2023-04-01T04:20:02;9.10;99.90
19252;DHT22;9760;50.944;5.304;2023-04-01T04:22:28;9.20;99.90
19252;DHT22;9760;50.944;5.304;2023-04-01T04:24:54;9.10;99.90
19252;DHT22;9760;50.944;5.304;2023-04-01T04:27:19;9.10;99.90
19252;DHT22;9760;50.944;5.304;2023-04-01T04:29:45;9.10;99.90
19252;DHT22;9760;50.944;5.304;2023-04-01T04:32:11;9.00;99.90
19252;DHT22;9760;50.944;5.304;2023-04-01T04:34:36;9.10;99.90
19252;DHT22;9760;50.944;5.304;2023-04-01T04:37:02;9.10;99.90
19252;DHT22;9760;50.944;5.304;2023-04-01T04:39:28;9.10;99.90
19252;DHT22;9760;50.944;5.304;2023-04-01T04:41:54;9.00;99.90
19252;DHT22;9760;50.944;5.304;2023-04-01T04:44:19;9.20;99.90
19252;DHT22;9760;50.944;5.304;2023-04-01T04:46:45;9.00;99.90
19252;DHT22;9760;50.944;5.304;2023-04-01T04:49:11;9.00;99.90
19252;DHT22;9760;50.944;5.304;2023-04-01T04:51:36;9.00;99.90
19252;DHT22;9760;50.944;5.304;2023-04-01T04:54:03;9.00;99.90
19252;DHT22;9760;50.944;5.304;2023-04-01T04:56:29;9.00;99.90
19252;DHT22;9760;50.944;5.304;2023-04-01T04:58:56;9.00;99.90
19252;DHT22;9760;50.944;5.304;2023-04-01T05:01:21;9.00;99.90
19252;DHT22;9760;50.944;5.304;2023-04-01T05:03:47;9.00;99.90
19252;DHT22;9760;50.944;5.304;2023-04-01T05:06:14;9.00;99.90
19252;DHT22;9760;50.944;5.304;2023-04-01T05:08:41;9.00;99.90
19252;DHT22;9760;50.944;5.304;2023-04-01T05:11:14;9.00;99.90
19252;DHT22;9760;50.944;5.304;2023-04-01T05:13:40;9.00;99.90
19252;DHT22;9760;50.944;5.304;2023-04-01T05:16:12;9.00;99.90
19252;DHT22;9760;50.944;5.304;2023-04-01T05:18:38;9.00;99.90
19252;DHT22;9760;50.944;5.304;2023-04-01T05:21:04;9.00;99.90
19252;DHT22;9760;50.944;5.304;2023-04-01T05:23:31;9.00;99.90
19252;DHT22;9760;50.944;5.304;2023-04-01T05:25:57;9.00;99.90
19252;DHT22;9760;50.944;5.304;2023-04-01T05:28:23;9.00;99.90
19252;DHT22;9760;50.944;5.304;2023-04-01T05:30:48;9.00;99.90
19252;DHT22;9760;50.944;5.304;2023-04-01T05:33:14;9.00;99.90
19252;DHT22;9760;50.944;5.304;2023-04-01T05:35:40;9.00;99.90
19252;DHT22;9760;50.944;5.304;2023-04-01T05:38:06;9.00;99.90
19252;DHT22;9760;50.944;5.304;2023-04-01T05:40:32;9.00;99.90
19252;DHT22;9760;50.944;5.304;2023-04-01T05:42:58;9.00;99.90
19252;DHT22;9760;50.944;5.304;2023-04-01T05:45:24;9.00;99.90
19252;DHT22;9760;50.944;5.304;2023-04-01T05:47:49;9.00;99.90
19252;DHT22;9760;50.944;5.304;2023-04-01T05:50:15;9.10;99.90
19252;DHT22;9760;50.944;5.304;2023-04-01T05:52:41;9.00;99.90
19252;DHT22;9760;50.944;5.304;2023-04-01T05:55:07;9.00;99.90
19252;DHT22;9760;50.944;5.304;2023-04-01T05:57:33;9.00;99.90
19252;DHT22;9760;50.944;5.304;2023-04-01T05:59:58;9.00;99.90
19252;DHT22;9760;50.944;5.304;2023-04-01T06:02:24;9.00;99.90
19252;DHT22;9760;50.944;5.304;2023-04-01T06:05:36;9.00;99.90
19252;DHT22;9760;50.944;5.304;2023-04-01T06:08:09;9.00;99.90
19252;DHT22;9760;50.944;5.304;2023-04-01T06:13:38;9.00;99.90
19252;DHT22;9760;50.944;5.304;2023-04-01T06:16:37;9.00;99.90
19252;DHT22;9760;50.944;5.304;2023-04-01T06:50:19;9.10;99.90
19252;DHT22;9760;50.944;5.304;2023-04-01T06:55:44;9.10;99.90
19252;DHT22;9760;50.944;5.304;2023-04-01T07:00:50;9.00;99.90
19252;DHT22;9760;50.944;5.304;2023-04-01T07:03:26;9.10;99.90
19252;DHT22;9760;50.944;5.304;2023-04-01T07:05:59;9.10;99.90
19252;DHT22;9760;50.944;5.304;2023-04-01T07:08:28;9.10;99.90
19252;DHT22;9760;50.944;5.304;2023-04-01T07:11:03;9.10;99.90
19252;DHT22;9760;50.944;5.304;2023-04-01T07:13:49;9.10;99.90
19252;DHT22;9760;50.944;5.304;2023-04-01T07:19:02;9.10;99.90
19252;DHT22;9760;50.944;5.304;2023-04-01T07:21:36;9.20;99.90
19252;DHT22;9760;50.944;5.304;2023-04-01T07:24:10;9.20;99.90
19252;DHT22;9760;50.944;5.304;2023-04-01T07:26:37;9.20;99.90
19252;DHT22;9760;50.944;5.304;2023-04-01T07:29:09;9.20;99.90
19252;DHT22;9760;50.944;5.304;2023-04-01T07:32:09;9.20;99.90
19252;DHT22;9760;50.944;5.304;2023-04-01T07:40:14;9.20;99.90
19252;DHT22;9760;50.944;5.304;2023-04-01T07:43:10;9.30;99.90
19252;DHT22;9760;50.944;5.304;2023-04-01T07:46:18;9.20;99.90
19252;DHT22;9760;50.944;5.304;2023-04-01T07:51:47;9.30;99.90
19252;DHT22;9760;50.944;5.304;2023-04-01T07:55:12;9.20;99.90
19252;DHT22;9760;50.944;5.304;2023-04-01T08:05:28;9.10;99.90
19252;DHT22;9760;50.944;5.304;2023-04-01T08:10:51;9.10;99.90
19252;DHT22;9760;50.944;5.304;2023-04-01T08:13:39;9.10;99.90
19252;DHT22;9760;50.944;5.304;2023-04-01T08:16:35;9.10;99.90
19252;DHT22;9760;50.944;5.304;2023-04-01T08:22:14;9.10;99.90
19252;DHT22;9760;50.944;5.304;2023-04-01T08:24:45;9.10;99.90
19252;DHT22;9760;50.944;5.304;2023-04-01T08:29:46;9.20;99.90
19252;DHT22;9760;50.944;5.304;2023-04-01T08:32:36;9.20;99.90
19252;DHT22;9760;50.944;5.304;2023-04-01T08:37:53;9.20;99.90
19252;DHT22;9760;50.944;5.304;2023-04-01T08:46:06;9.40;99.90
19252;DHT22;9760;50.944;5.304;2023-04-01T08:57:00;9.40;99.90
19252;DHT22;9760;50.944;5.304;2023-04-01T09:08:01;9.50;99.90
19252;DHT22;9760;50.944;5.304;2023-04-01T09:11:04;9.50;99.90
19252;DHT22;9760;50.944;5.304;2023-04-01T09:21:30;9.50;99.90
19252;DHT22;9760;50.944;5.304;2023-04-01T09:46:32;10.00;99.90
19252;DHT22;9760;50.944;5.304;2023-04-01T09:58:02;9.90;99.90
19252;DHT22;9760;50.944;5.304;2023-04-01T10:06:32;10.10;99.90
19252;DHT22;9760;50.944;5.304;2023-04-01T10:12:04;10.10;99.90
19252;DHT22;9760;50.944;5.304;2023-04-01T10:31:42;10.10;99.90
19252;DHT22;9760;50.944;5.304;2023-04-01T10:59:20;10.00;99.90
19252;DHT22;9760;50.944;5.304;2023-04-01T11:10:41;10.10;99.90
19252;DHT22;9760;50.944;5.304;2023-04-01T11:22:30;10.00;99.90
19252;DHT22;9760;50.944;5.304;2023-04-01T11:28:00;9.90;99.90
19252;DHT22;9760;50.944;5.304;2023-04-01T11:39:05;10.00;99.90
19252;DHT22;9760;50.944;5.304;2023-04-01T11:41:38;10.10;99.90
19252;DHT22;9760;50.944;5.304;2023-04-01T11:44:21;10.10;99.90
19252;DHT22;9760;50.944;5.304;2023-04-01T11:49:36;10.30;99.90
19252;DHT22;9760;50.944;5.304;2023-04-01T11:55:19;10.40;99.90
19252;DHT22;9760;50.944;5.304;2023-04-01T12:00:56;10.30;99.90
19252;DHT22;9760;50.944;5.304;2023-04-01T12:11:45;10.40;99.90
19252;DHT22;9760;50.944;5.304;2023-04-01T12:23:08;10.40;99.90
19252;DHT22;9760;50.944;5.304;2023-04-01T12:34:34;10.30;99.90
19252;DHT22;9760;50.944;5.304;2023-04-01T12:37:24;10.20;99.90
19252;DHT22;9760;50.944;5.304;2023-04-01T12:42:54;10.10;99.90
19252;DHT22;9760;50.944;5.304;2023-04-01T12:45:33;9.90;99.90
19252;DHT22;9760;50.944;5.304;2023-04-01T13:05:01;10.10;99.90
19252;DHT22;9760;50.944;5.304;2023-04-01T13:07:46;10.20;99.90
19252;DHT22;9760;50.944;5.304;2023-04-01T13:10:31;10.30;99.90
19252;DHT22;9760;50.944;5.304;2023-04-01T13:16:02;10.50;99.90
19252;DHT22;9760;50.944;5.304;2023-04-01T13:21:38;10.40;99.90
19252;DHT22;9760;50.944;5.304;2023-04-01T13:26:44;10.30;99.90
19252;DHT22;9760;50.944;5.304;2023-04-01T13:43:02;10.20;99.90
19252;DHT22;9760;50.944;5.304;2023-04-01T13:51:07;10.20;99.90
19252;DHT22;9760;50.944;5.304;2023-04-01T13:56:54;10.10;99.90
19252;DHT22;9760;50.944;5.304;2023-04-01T14:08:17;10.10;99.90
19252;DHT22;9760;50.944;5.304;2023-04-01T14:13:44;10.30;99.90
19252;DHT22;9760;50.944;5.304;2023-04-01T14:17:02;10.20;99.90
19252;DHT22;9760;50.944;5.304;2023-04-01T14:22:53;10.00;99.90
19252;DHT22;9760;50.944;5.304;2023-04-01T14:39:07;10.10;99.90
19252;DHT22;9760;50.944;5.304;2023-04-01T14:50:16;10.10;99.90
19252;DHT22;9760;50.944;5.304;2023-04-01T14:55:37;10.10;99.90
19252;DHT22;9760;50.944;5.304;2023-04-01T14:58:13;10.10;99.90
19252;DHT22;9760;50.944;5.304;2023-04-01T15:00:50;10.00;99.90
19252;DHT22;9760;50.944;5.304;2023-04-01T15:03:38;10.00;99.90
19252;DHT22;9760;50.944;5.304;2023-04-01T15:11:32;9.90;99.90
19252;DHT22;9760;50.944;5.304;2023-04-01T15:16:58;10.00;99.90
19252;DHT22;9760;50.944;5.304;2023-04-01T15:19:35;9.90;99.90
19252;DHT22;9760;50.944;5.304;2023-04-01T15:22:27;10.00;99.90
19252;DHT22;9760;50.944;5.304;2023-04-01T15:35:37;10.00;99.90
19252;DHT22;9760;50.944;5.304;2023-04-01T15:43:48;10.20;99.90
19252;DHT22;9760;50.944;5.304;2023-04-01T15:46:46;10.30;99.90
19252;DHT22;9760;50.944;5.304;2023-04-01T15:54:45;10.40;99.90
19252;DHT22;9760;50.944;5.304;2023-04-01T16:00:29;10.50;99.90
19252;DHT22;9760;50.944;5.304;2023-04-01T16:06:11;10.50;99.90
19252;DHT22;9760;50.944;5.304;2023-04-01T16:11:48;10.50;99.90
19252;DHT22;9760;50.944;5.304;2023-04-01T16:14:38;10.40;99.90
19252;DHT22;9760;50.944;5.304;2023-04-01T16:28:15;10.00;99.90
19252;DHT22;9760;50.944;5.304;2023-04-01T16:31:15;10.00;99.90
19252;DHT22;9760;50.944;5.304;2023-04-01T16:36:52;10.10;99.90
19252;DHT22;9760;50.944;5.304;2023-04-01T16:40:38;10.00;99.90
19252;DHT22;9760;50.944;5.304;2023-04-01T16:43:04;10.00;99.90
19252;DHT22;9760;50.944;5.304;2023-04-01T16:48:06;9.90;99.90
19252;DHT22;9760;50.944;5.304;2023-04-01T16:51:11;9.80;99.90
19252;DHT22;9760;50.944;5.304;2023-04-01T16:53:49;9.70;99.90
19252;DHT22;9760;50.944;5.304;2023-04-01T16:56:23;9.60;99.90
19252;DHT22;9760;50.944;5.304;2023-04-01T17:01:48;9.50;99.90
19252;DHT22;9760;50.944;5.304;2023-04-01T17:14:57;9.50;99.90
19252;DHT22;9760;50.944;5.304;2023-04-01T17:37:41;9.20;99.90
19252;DHT22;9760;50.944;5.304;2023-04-01T17:45:54;9.20;99.90
19252;DHT22;9760;50.944;5.304;2023-04-01T17:53:43;9.10;99.90
19252;DHT22;9760;50.944;5.304;2023-04-01T18:07:23;9.00;99.90
19252;DHT22;9760;50.944;5.304;2023-04-01T18:18:02;9.00;99.90
19252;DHT22;9760;50.944;5.304;2023-04-01T18:20:34;9.00;99.90
19252;DHT22;9760;50.944;5.304;2023-04-01T18:23:43;9.00;99.90
19252;DHT22;9760;50.944;5.304;2023-04-01T18:26:20;9.00;99.90
19252;DHT22;9760;50.944;5.304;2023-04-01T18:28:56;9.00;99.90
19252;DHT22;9760;50.944;5.304;2023-04-01T18:31:35;9.10;99.90
19252;DHT22;9760;50.944;5.304;2023-04-01T18:39:21;9.00;99.90
19252;DHT22;9760;50.944;5.304;2023-04-01T18:44:59;9.00;99.90
19252;DHT22;9760;50.944;5.304;2023-04-01T18:47:43;8.90;99.90
19252;DHT22;9760;50.944;5.304;2023-04-01T18:50:27;8.90;99.90
19252;DHT22;9760;50.944;5.304;2023-04-01T18:53:08;8.90;99.90
19252;DHT22;9760;50.944;5.304;2023-04-01T18:55:47;8.90;99.90
19252;DHT22;9760;50.944;5.304;2023-04-01T19:01:33;8.90;99.90
19252;DHT22;9760;50.944;5.304;2023-04-01T19:04:12;8.90;99.90
19252;DHT22;9760;50.944;5.304;2023-04-01T19:07:00;9.00;99.90
19252;DHT22;9760;50.944;5.304;2023-04-01T19:09:45;9.00;99.90
19252;DHT22;9760;50.944;5.304;2023-04-01T19:12:32;8.90;99.90
19252;DHT22;9760;50.944;5.304;2023-04-01T19:29:49;8.90;99.90
19252;DHT22;9760;50.944;5.304;2023-04-01T19:46:30;8.90;99.90
19252;DHT22;9760;50.944;5.304;2023-04-01T19:52:14;8.90;99.90
19252;DHT22;9760;50.944;5.304;2023-04-01T19:57:58;8.90;99.90
19252;DHT22;9760;50.944;5.304;2023-04-01T20:00:36;9.00;99.90
19252;DHT22;9760;50.944;5.304;2023-04-01T20:08:50;9.00;99.90
19252;DHT22;9760;50.944;5.304;2023-04-01T20:19:11;9.00;99.90
19252;DHT22;9760;50.944;5.304;2023-04-01T20:21:46;9.00;99.90
19252;DHT22;9760;50.944;5.304;2023-04-01T20:27:10;9.00;99.90
19252;DHT22;9760;50.944;5.304;2023-04-01T20:41:41;9.10;99.90
19252;DHT22;9760;50.944;5.304;2023-04-01T20:44:18;9.10;99.90
19252;DHT22;9760;50.944;5.304;2023-04-01T20:49:40;9.20;99.90
19252;DHT22;9760;50.944;5.304;2023-04-01T20:58:04;9.30;99.90
19252;DHT22;9760;50.944;5.304;2023-04-01T21:08:47;9.40;99.90
19252;DHT22;9760;50.944;5.304;2023-04-01T21:11:29;9.50;99.90
19252;DHT22;9760;50.944;5.304;2023-04-01T21:17:10;9.60;99.90
19252;DHT22;9760;50.944;5.304;2023-04-01T21:37:52;9.40;99.90
19252;DHT22;9760;50.944;5.304;2023-04-01T21:42:26;9.40;99.90
19252;DHT22;9760;50.944;5.304;2023-04-01T22:06:27;9.20;99.90
19252;DHT22;9760;50.944;5.304;2023-04-01T22:14:52;9.20;99.90
19252;DHT22;9760;50.944;5.304;2023-04-01T22:20:16;9.20;99.90
19252;DHT22;9760;50.944;5.304;2023-04-01T22:28:15;9.20;99.90
19252;DHT22;9760;50.944;5.304;2023-04-01T22:30:51;9.10;99.90
19252;DHT22;9760;50.944;5.304;2023-04-01T22:49:48;8.90;99.90
19252;DHT22;9760;50.944;5.304;2023-04-01T22:52:39;8.90;99.90
19252;DHT22;9760;50.944;5.304;2023-04-01T22:55:29;8.80;99.90
19252;DHT22;9760;50.944;5.304;2023-04-01T22:58:11;8.80;99.90
19252;DHT22;9760;50.944;5.304;2023-04-01T23:00:56;8.80;99.90
19252;DHT22;9760;50.944;5.304;2023-04-01T23:03:43;8.70;99.90
19252;DHT22;9760;50.944;5.304;2023-04-01T23:06:17;8.80;99.90
19252;DHT22;9760;50.944;5.304;2023-04-01T23:08:55;8.80;99.90
19252;DHT22;9760;50.944;5.304;2023-04-01T23:11:30;8.80;99.90
19252;DHT22;9760;50.944;5.304;2023-04-01T23:20:00;8.60;99.90
19252;DHT22;9760;50.944;5.304;2023-04-01T23:35:50;8.70;99.90
19252;DHT22;9760;50.944;5.304;2023-04-01T23:38:18;8.60;99.90
19252;DHT22;9760;50.944;5.304;2023-04-01T23:40:48;8.50;99.90
19252;DHT22;9760;50.944;5.304;2023-04-01T23:43:26;8.40;99.90
19252;DHT22;9760;50.944;5.304;2023-04-01T23:45:54;8.40;99.90
19252;DHT22;9760;50.944;5.304;2023-04-01T23:48:31;8.40;99.90
19252;DHT22;9760;50.944;5.304;2023-04-01T23:50:58;8.50;99.90
19252;DHT22;9760;50.944;5.304;2023-04-01T23:53:26;8.40;99.90
19252;DHT22;9760;50.944;5.304;2023-04-01T23:55:54;8.40;99.90
